?

Log in

No account? Create an account

Previous Entry | Next Entry

Гренландия

Вода, горы, снег. И больше ничего.




Снега столько, что даже упавший самолёт здесь, наверное, не разобьётся. Он, если не прогадает место, просто мягко погрузится в пуховую перину.




Сурово, но очень красиво




А за Гренландией по пути из Москвы в Лос Анжелес лежат красивейшие озёра северной Канады

Comments

aviacomment
Jul. 9th, 2012 02:57 pm (UTC)
METAR - Aviation Routine Weather Report
BGSF - Kangerlussuaq,
Updated at 09 07, 2012 14:20 GMT (12:20 PM WGST):
METAR BGSF 091420Z AUTO 07012KT 9999NDV SCT065/// BKN080/// 17/09 Q1014

////////////////////////////////////////////////////////////////////////////////

В Вашем комментарии ВСЁ СПЛОШЬ ВРАНЬЁ